createdAt,value
2024-03-09T00:00:45.621Z,54.86
2024-03-09T00:05:49.768Z,54.56
2024-03-09T00:10:55.121Z,54.68
2024-03-09T00:16:00.477Z,54.40
2024-03-09T00:21:07.762Z,54.83
2024-03-09T00:26:13.232Z,54.30
2024-03-09T00:31:18.080Z,54.04
2024-03-09T00:36:22.987Z,55.11
2024-03-09T00:41:28.507Z,55.11
2024-03-09T00:46:32.501Z,55.41
2024-03-09T00:51:36.389Z,55.56
2024-03-09T00:56:41.705Z,55.87
2024-03-09T01:01:45.891Z,55.95
2024-03-09T01:06:50.015Z,55.71
2024-03-09T01:11:55.478Z,55.57
2024-03-09T01:17:01.371Z,55.56
2024-03-09T01:22:07.817Z,55.81
2024-03-09T01:27:13.295Z,56.20
2024-03-09T01:32:17.967Z,56.14
2024-03-09T01:37:23.807Z,55.75
2024-03-09T01:42:30.672Z,56.33
2024-03-09T01:47:35.520Z,56.78
2024-03-09T01:52:40.873Z,56.43
2024-03-09T01:57:47.376Z,56.89
2024-03-09T02:02:53.813Z,56.90
2024-03-09T02:07:57.745Z,56.73
2024-03-09T02:13:04.006Z,57.16
2024-03-09T02:18:08.842Z,56.44
2024-03-09T02:23:13.278Z,56.99
2024-03-09T02:28:20.152Z,56.74
2024-03-09T02:33:24.353Z,56.81
2024-03-09T02:38:28.204Z,55.97
2024-03-09T02:43:38.236Z,56.13
2024-03-09T02:48:44.922Z,56.76
2024-03-09T02:53:48.810Z,56.00
2024-03-09T02:58:54.083Z,56.22
2024-03-09T03:04:00.371Z,55.80
2024-03-09T03:09:13.650Z,55.62
2024-03-09T03:14:19.571Z,55.84
2024-03-09T03:19:24.159Z,55.40
2024-03-09T03:24:28.014Z,55.47
2024-03-09T03:29:34.272Z,55.69
2024-03-09T03:34:39.126Z,56.07
2024-03-09T03:39:42.619Z,56.53
2024-03-09T03:44:47.859Z,56.90
2024-03-09T03:49:52.321Z,57.37
2024-03-09T03:54:57.203Z,57.12
2024-03-09T04:00:02.151Z,56.93
2024-03-09T04:05:06.630Z,57.50
2024-03-09T04:10:15.635Z,58.18
2024-03-09T04:15:21.075Z,57.64
2024-03-09T04:20:28.563Z,57.49
2024-03-09T04:25:34.296Z,56.75
2024-03-09T04:30:40.312Z,57.08
2024-03-09T04:35:46.593Z,57.07
2024-03-09T04:40:51.866Z,56.66
2024-03-09T04:45:57.430Z,57.16
2024-03-09T04:51:02.486Z,56.63
2024-03-09T04:56:07.749Z,57.22
2024-03-09T05:01:13.169Z,56.89
2024-03-09T05:06:17.269Z,56.33
2024-03-09T05:11:21.174Z,55.88
2024-03-09T05:16:26.724Z,52.83
2024-03-09T05:21:35.636Z,43.30
2024-03-09T05:26:44.257Z,35.96
2024-03-09T05:31:49.888Z,31.77
2024-03-09T05:36:54.666Z,25.95
2024-03-09T05:41:58.778Z,25.52
2024-03-09T05:47:04.461Z,27.83
2024-03-09T05:52:09.392Z,30.56
2024-03-09T05:57:13.177Z,34.05
2024-03-09T06:02:18.592Z,36.02
2024-03-09T06:07:22.498Z,37.27
2024-03-09T06:12:26.934Z,38.02
2024-03-09T06:17:32.633Z,35.34
2024-03-09T06:22:36.738Z,26.51
2024-03-09T06:27:40.851Z,21.33
2024-03-09T06:32:46.468Z,20.30
2024-03-09T06:37:58.024Z,18.72
2024-03-09T06:43:02.498Z,16.10
2024-03-09T06:48:08.619Z,14.99
2024-03-09T06:53:12.835Z,14.66
2024-03-09T06:58:16.735Z,13.89
2024-03-09T07:03:22.053Z,13.01
2024-03-09T07:08:27.202Z,12.30
2024-03-09T07:13:31.211Z,11.27
2024-03-09T07:18:38.391Z,11.15
2024-03-09T07:23:42.542Z,10.43
2024-03-09T07:28:46.481Z,10.45
2024-03-09T07:33:54.718Z,9.65
2024-03-09T07:38:58.608Z,9.39
2024-03-09T07:44:03.288Z,9.04
2024-03-09T07:49:09.157Z,9.23
2024-03-09T07:54:13.091Z,8.44
2024-03-09T07:59:18.784Z,8.70
2024-03-09T08:04:24.142Z,8.16
2024-03-09T08:09:29.629Z,8.49
2024-03-09T08:14:35.513Z,9.15
2024-03-09T08:19:41.097Z,9.66
2024-03-09T08:24:45.246Z,9.34
2024-03-09T08:29:51.545Z,9.80
2024-03-09T08:34:57.147Z,10.03
2024-03-09T08:40:01.070Z,10.02
2024-03-09T08:45:07.458Z,10.79
2024-03-09T08:50:13.357Z,12.07
2024-03-09T08:55:17.965Z,12.76
2024-03-09T09:00:27.028Z,14.08
2024-03-09T09:05:33.085Z,16.27
2024-03-09T09:10:37.581Z,18.13
2024-03-09T09:15:44.021Z,21.25
2024-03-09T09:20:49.996Z,22.23
2024-03-09T09:25:54.037Z,23.23
2024-03-09T09:30:57.928Z,23.52
2024-03-09T09:36:03.166Z,24.28
2024-03-09T09:41:08.106Z,25.05
2024-03-09T09:46:13.742Z,24.66
2024-03-09T09:51:21.624Z,25.81
2024-03-09T09:56:25.634Z,26.42
2024-03-09T10:01:29.742Z,26.44
2024-03-09T10:06:35.060Z,26.66
2024-03-09T10:11:56.380Z,26.87
2024-03-09T10:17:11.132Z,27.09
2024-03-09T10:22:17.107Z,27.95
2024-03-09T10:27:22.938Z,28.11
2024-03-09T10:32:28.040Z,27.98
2024-03-09T10:37:33.816Z,28.55
2024-03-09T10:42:44.955Z,28.61
2024-03-09T10:47:54.538Z,28.74
2024-03-09T10:53:20.734Z,28.41
2024-03-09T10:58:27.741Z,28.82
2024-03-09T11:03:33.889Z,28.96
2024-03-09T11:08:39.963Z,29.21
2024-03-09T11:13:45.896Z,29.52
2024-03-09T11:18:58.004Z,29.60
2024-03-09T11:24:09.799Z,29.83
2024-03-09T11:29:14.043Z,29.81
2024-03-09T11:34:22.939Z,29.53
2024-03-09T11:39:31.288Z,29.93
2024-03-09T11:44:35.516Z,30.14
2024-03-09T11:49:42.078Z,30.35
2024-03-09T11:54:51.148Z,30.22
2024-03-09T11:59:55.534Z,30.18
2024-03-09T12:04:59.553Z,30.50
2024-03-09T12:10:05.670Z,30.97
2024-03-09T12:15:11.197Z,31.66
2024-03-09T12:20:15.819Z,31.92
2024-03-09T12:25:21.093Z,31.67
2024-03-09T12:30:25.688Z,32.77
2024-03-09T12:35:30.415Z,33.01
2024-03-09T12:40:35.821Z,32.36
2024-03-09T12:45:41.021Z,32.91
2024-03-09T12:50:44.928Z,33.16
2024-03-09T12:55:52.369Z,33.29
2024-03-09T13:01:13.365Z,32.82
2024-03-09T13:06:17.285Z,33.17
2024-03-09T13:11:23.298Z,33.41
2024-03-09T13:16:27.319Z,32.89
2024-03-09T13:21:31.446Z,32.84
2024-03-09T13:26:36.720Z,32.89
2024-03-09T13:31:40.669Z,33.18
2024-03-09T13:36:44.820Z,33.59
2024-03-09T13:41:50.482Z,33.56
2024-03-09T13:46:54.452Z,33.81
2024-03-09T13:52:01.159Z,33.90
2024-03-09T13:57:07.464Z,34.57
2024-03-09T14:02:14.718Z,34.63
2024-03-09T14:07:23.083Z,34.67
2024-03-09T14:12:28.683Z,35.03
2024-03-09T14:17:33.148Z,35.05
2024-03-09T14:22:37.062Z,35.03
2024-03-09T14:27:42.495Z,35.42
2024-03-09T14:32:48.326Z,35.71
2024-03-09T14:37:54.998Z,35.70
2024-03-09T14:43:03.791Z,35.55
2024-03-09T14:48:10.947Z,35.77
2024-03-09T14:53:16.108Z,35.86
2024-03-09T14:58:21.500Z,36.15
2024-03-09T15:03:33.694Z,36.81
2024-03-09T15:08:38.781Z,37.13
2024-03-09T15:14:02.486Z,37.05
2024-03-09T15:19:06.297Z,36.97
2024-03-09T15:24:12.563Z,37.54
2024-03-09T15:29:17.944Z,37.56
2024-03-09T15:34:21.955Z,37.82
2024-03-09T15:39:28.178Z,38.10
2024-03-09T15:44:33.809Z,38.07
2024-03-09T15:49:37.932Z,38.40
2024-03-09T15:54:43.539Z,38.57
2024-03-09T15:59:49.106Z,38.40
2024-03-09T16:04:53.821Z,38.46
2024-03-09T16:09:57.923Z,38.76
2024-03-09T16:15:05.474Z,39.29
2024-03-09T16:20:10.166Z,38.79
2024-03-09T16:25:14.399Z,39.52
2024-03-09T16:30:30.083Z,39.08
2024-03-09T16:35:34.351Z,39.21
2024-03-09T16:40:41.312Z,40.35
2024-03-09T16:45:46.770Z,40.25
2024-03-09T16:50:51.156Z,40.34
2024-03-09T16:55:55.260Z,40.04
2024-03-09T17:01:06.184Z,40.23
2024-03-09T17:06:11.318Z,40.76
2024-03-09T17:11:15.936Z,40.84
2024-03-09T17:16:21.216Z,40.70
2024-03-09T17:21:25.932Z,40.75
2024-03-09T17:26:33.910Z,40.20
2024-03-09T17:31:39.740Z,40.46
2024-03-09T17:36:44.162Z,40.88
2024-03-09T17:41:48.148Z,40.78
2024-03-09T17:46:56.888Z,41.11
2024-03-09T17:52:00.720Z,41.32
2024-03-09T17:57:04.713Z,41.65
2024-03-09T18:02:10.543Z,41.63
2024-03-09T18:07:14.454Z,40.98
2024-03-09T18:12:19.028Z,42.01
2024-03-09T18:17:24.246Z,41.27
2024-03-09T18:22:28.344Z,41.39
2024-03-09T18:27:32.807Z,41.78
2024-03-09T18:32:38.918Z,42.41
2024-03-09T18:37:45.172Z,42.46
2024-03-09T18:42:51.604Z,42.50
2024-03-09T18:47:59.008Z,42.93
2024-03-09T18:53:03.490Z,42.13
2024-03-09T18:58:10.136Z,42.91
2024-03-09T19:03:16.352Z,42.17
2024-03-09T19:08:23.340Z,42.53
2024-03-09T19:13:27.231Z,42.90
2024-03-09T19:18:50.264Z,42.24
2024-03-09T19:23:54.290Z,42.75
2024-03-09T19:28:58.230Z,42.62
2024-03-09T19:34:03.749Z,42.78
2024-03-09T19:39:10.639Z,43.25
2024-03-09T19:44:15.420Z,43.00
2024-03-09T19:49:21.384Z,43.19
2024-03-09T19:54:25.301Z,43.37
2024-03-09T19:59:29.288Z,44.02
2024-03-09T20:04:38.453Z,43.41
2024-03-09T20:09:43.074Z,43.74
2024-03-09T20:14:46.995Z,43.72
2024-03-09T20:19:54.173Z,43.73
2024-03-09T20:25:00.402Z,44.00
2024-03-09T20:30:04.310Z,43.51
2024-03-09T20:35:12.589Z,43.70
2024-03-09T20:40:19.462Z,43.49
2024-03-09T20:45:24.718Z,44.12
2024-03-09T20:50:31.152Z,43.60
2024-03-09T20:55:35.060Z,43.90
2024-03-09T21:00:39.442Z,44.08
2024-03-09T21:05:44.842Z,43.56
2024-03-09T21:10:51.510Z,43.91
2024-03-09T21:15:56.385Z,44.23
2024-03-09T21:21:02.664Z,43.15
2024-03-09T21:26:06.649Z,44.30
2024-03-09T21:31:11.001Z,44.37
2024-03-09T21:36:16.322Z,45.15
2024-03-09T21:41:20.618Z,45.40
2024-03-09T21:46:24.965Z,45.42
2024-03-09T21:51:30.328Z,45.34
2024-03-09T21:56:34.979Z,45.66
2024-03-09T22:01:38.617Z,44.99
2024-03-09T22:06:45.274Z,44.72
2024-03-09T22:11:49.817Z,45.48
2024-03-09T22:16:53.774Z,45.63
2024-03-09T22:21:58.943Z,44.88
2024-03-09T22:27:02.791Z,45.30
2024-03-09T22:32:07.063Z,44.58
2024-03-09T22:37:13.366Z,45.31
2024-03-09T22:42:17.599Z,44.51
2024-03-09T22:47:22.162Z,44.54
2024-03-09T22:52:27.625Z,45.17
2024-03-09T22:57:31.764Z,44.75
2024-03-09T23:02:35.654Z,44.73
2024-03-09T23:07:41.073Z,45.16
2024-03-09T23:12:45.625Z,44.99
2024-03-09T23:17:53.509Z,44.77
2024-03-09T23:23:00.504Z,43.90
2024-03-09T23:28:08.642Z,44.32
2024-03-09T23:33:12.521Z,45.04
2024-03-09T23:38:19.598Z,44.53
2024-03-09T23:43:23.572Z,45.08
2024-03-09T23:48:28.246Z,44.96
2024-03-09T23:53:35.388Z,44.93
2024-03-09T23:58:40.933Z,45.21
